Time;durP1;ratioP1;P1;durP2;ratioP2;P2;SDS_P1;SDS_P2;PMS_P1;PMS_P2;Temp;Humidity;BMP_temperature;BMP_pressure;BME280_temperature;BME280_humidity;BME280_pressure;Samples;Min_cycle;Max_cycle;Signal;HPM_P1;HPM_P2
2021/11/01 08:25:12;;;;;;;1.90;0.33;;;12.70;99.90;;;;;;4955681;29;20600;-74
2021/11/01 08:38:57;;;;;;;5.17;0.50;;;12.90;99.90;;;;;;4938599;29;20207;-77
2021/11/01 08:44:30;;;;;;;0.97;0.50;;;12.60;99.90;;;;;;4934243;29;20217;-77
2021/11/01 09:03:37;;;;;;;1.23;0.40;;;12.10;99.90;;;;;;4937429;29;20323;-82
2021/11/01 09:06:13;;;;;;;4.37;1.43;;;12.10;99.90;;;;;;4937500;29;20208;-79
2021/11/01 09:25:20;;;;;;;4.73;0.60;;;12.20;99.90;;;;;;5131040;27;20983;-77
2021/11/01 09:27:57;;;;;;;0.93;0.50;;;11.90;99.90;;;;;;5130916;28;20201;-76
2021/11/01 09:30:38;;;;;;;4.33;0.33;;;11.90;99.90;;;;;;5130464;28;20328;-77
2021/11/01 09:35:57;;;;;;;1.87;0.77;;;11.90;99.90;;;;;;5130669;28;20203;-76
2021/11/01 09:41:12;;;;;;;3.47;0.77;;;11.80;99.90;;;;;;5103501;28;20238;-74
2021/11/01 09:43:39;;;;;;;1.53;0.40;;;11.90;99.90;;;;;;5130454;28;20683;-72
2021/11/01 09:46:10;;;;;;;2.63;0.60;;;12.00;99.90;;;;;;5130548;28;20201;-77
2021/11/01 09:48:38;;;;;;;1.13;0.50;;;12.10;99.90;;;;;;5130198;28;20610;-74
2021/11/01 09:51:06;;;;;;;2.10;0.80;;;12.20;99.90;;;;;;5130022;28;20244;-76
2021/11/01 09:53:39;;;;;;;3.17;0.53;;;12.00;99.90;;;;;;5130375;28;20225;-77
2021/11/01 09:56:18;;;;;;;3.80;0.97;;;12.10;99.90;;;;;;5130754;27;20258;-76
2021/11/01 10:01:31;;;;;;;1.90;0.50;;;12.00;99.90;;;;;;5130029;28;20568;-77
2021/11/01 10:03:58;;;;;;;1.70;0.53;;;12.10;99.90;;;;;;5130063;28;20205;-77
2021/11/01 10:06:28;;;;;;;2.83;0.60;;;12.10;99.90;;;;;;5130285;28;20296;-77
2021/11/01 10:08:57;;;;;;;1.47;0.30;;;12.30;99.90;;;;;;5130004;27;20202;-78
2021/11/01 10:11:26;;;;;;;0.93;0.23;;;12.50;99.90;;;;;;5129728;28;20227;-77
2021/11/01 10:13:57;;;;;;;6.67;0.90;;;12.60;99.90;;;;;;5129252;28;20233;-77
2021/11/01 10:19:27;;;;;;;2.13;0.70;;;12.60;99.90;;;;;;5129946;28;20213;-77
2021/11/01 10:21:55;;;;;;;1.30;0.40;;;12.40;99.90;;;;;;5129741;28;20207;-76
2021/11/01 10:24:26;;;;;;;3.23;0.50;;;12.50;99.90;;;;;;5140091;27;20289;-77
2021/11/01 10:26:54;;;;;;;2.73;0.60;;;12.60;99.90;;;;;;5136358;27;20292;-78
2021/11/01 10:29:22;;;;;;;1.60;0.50;;;12.70;99.90;;;;;;5136315;27;20214;-77
2021/11/01 10:31:49;;;;;;;3.53;0.50;;;12.70;99.90;;;;;;5136709;27;20201;-77
2021/11/01 10:34:16;;;;;;;1.13;1.00;;;12.60;99.90;;;;;;5136179;27;20236;-75
2021/11/01 10:36:48;;;;;;;0.30;0.20;;;12.40;99.90;;;;;;5136226;27;20208;-74
2021/11/01 10:39:18;;;;;;;2.53;0.40;;;12.30;99.90;;;;;;5136142;27;20208;-76
2021/11/01 10:41:51;;;;;;;1.83;0.50;;;12.30;99.90;;;;;;5135903;27;20312;-76
2021/11/01 10:44:49;;;;;;;5.10;0.50;;;12.30;99.90;;;;;;5136177;27;20568;-76
2021/11/01 10:59:14;;;;;;;0.50;0.30;;;12.80;99.90;;;;;;5135788;27;20227;-75
2021/11/01 11:12:49;;;;;;;3.27;0.30;;;13.20;99.90;;;;;;5136637;27;20238;-77
2021/11/01 11:15:16;;;;;;;2.30;0.40;;;13.20;99.90;;;;;;5136094;27;20219;-77
2021/11/01 11:18:00;;;;;;;4.50;0.47;;;13.30;99.90;;;;;;5136398;27;20201;-78
2021/11/01 11:26:12;;;;;;;2.97;0.40;;;13.40;99.90;;;;;;5124430;27;20239;-78
2021/11/01 11:40:46;;;;;;;3.07;0.63;;;13.60;99.90;;;;;;5135143;27;20241;-75
2021/11/01 11:43:39;;;;;;;3.07;0.57;;;13.30;99.90;;;;;;5135507;27;20240;-75
2021/11/01 11:49:02;;;;;;;2.93;0.50;;;13.30;99.90;;;;;;5135197;27;20245;-76
2021/11/01 11:51:31;;;;;;;1.97;0.47;;;13.20;99.90;;;;;;5135067;27;20581;-75
2021/11/01 11:53:59;;;;;;;0.50;0.30;;;13.10;99.90;;;;;;5131909;27;20228;-75
2021/11/01 11:56:32;;;;;;;3.17;0.60;;;13.20;99.90;;;;;;5135126;27;20197;-75
2021/11/01 11:59:00;;;;;;;1.70;0.40;;;13.40;99.90;;;;;;5135066;27;20201;-75
2021/11/01 12:01:29;;;;;;;1.60;0.20;;;13.60;99.90;;;;;;5124836;27;20214;-75
2021/11/01 12:03:57;;;;;;;2.63;0.50;;;13.70;99.90;;;;;;5114700;28;20206;-75
2021/11/01 12:06:44;;;;;;;1.20;0.60;;;13.50;99.90;;;;;;5114479;28;20208;-74
2021/11/01 12:09:17;;;;;;;3.53;0.40;;;13.60;99.90;;;;;;5114211;28;20688;-75
2021/11/01 12:12:15;;;;;;;2.97;0.60;;;13.60;99.90;;;;;;5114329;28;20202;-75
2021/11/01 12:17:23;;;;;;;1.73;0.47;;;13.50;99.90;;;;;;5112949;28;20675;-75
2021/11/01 12:19:50;;;;;;;4.00;0.50;;;13.50;99.90;;;;;;5113581;28;20689;-72
2021/11/01 12:22:29;;;;;;;3.30;0.30;;;13.50;99.90;;;;;;5113598;28;20692;-74
2021/11/01 12:25:01;;;;;;;3.13;0.67;;;13.50;99.90;;;;;;5113491;28;20209;-76
2021/11/01 12:27:32;;;;;;;1.47;0.40;;;13.50;99.90;;;;;;5113464;28;20610;-75
2021/11/01 12:30:01;;;;;;;0.57;0.33;;;13.50;99.90;;;;;;5095200;28;20283;-75
2021/11/01 12:32:28;;;;;;;3.23;0.53;;;13.50;99.90;;;;;;5113115;28;20202;-76
2021/11/01 12:34:59;;;;;;;5.07;0.30;;;13.50;99.90;;;;;;5113333;28;20407;-75
2021/11/01 12:37:29;;;;;;;1.60;0.30;;;13.50;99.90;;;;;;5113184;28;20292;-76
2021/11/01 12:40:07;;;;;;;0.87;0.20;;;13.50;99.90;;;;;;5113670;28;20302;-76
2021/11/01 12:42:51;;;;;;;4.07;0.63;;;13.50;99.90;;;;;;5112842;28;20606;-76
2021/11/01 12:48:19;;;;;;;1.13;0.20;;;13.60;99.90;;;;;;5112857;28;20190;-74
2021/11/01 12:59:15;;;;;;;3.17;0.30;;;13.80;99.90;;;;;;5133445;27;20200;-76
2021/11/01 13:01:49;;;;;;;3.80;0.40;;;13.70;99.90;;;;;;5133601;27;20197;-76
2021/11/01 13:04:34;;;;;;;3.33;1.00;;;13.80;99.90;;;;;;5133345;27;20208;-75
2021/11/01 13:07:05;;;;;;;2.73;0.40;;;13.70;99.90;;;;;;5130193;27;20205;-74
2021/11/01 13:09:38;;;;;;;1.57;0.30;;;13.70;99.90;;;;;;5131820;27;20270;-72
2021/11/01 13:12:23;;;;;;;0.77;0.30;;;13.70;99.90;;;;;;5132587;28;20212;-73
2021/11/01 13:17:48;;;;;;;1.17;0.23;;;13.80;99.90;;;;;;5132121;28;20264;-75
2021/11/01 13:18:11;;;;;;;0.70;0.20;;;13.70;99.90;;;;;;5132500;28;20649;-70
2021/11/01 13:20:40;;;;;;;1.90;0.30;;;13.80;99.90;;;;;;5133936;28;20221;-70
2021/11/01 13:23:09;;;;;;;0.60;0.30;;;13.70;99.90;;;;;;5133778;28;20266;-69
2021/11/01 13:25:46;;;;;;;2.67;0.40;;;13.70;99.90;;;;;;5133533;28;20215;-71
2021/11/01 13:37:04;;;;;;;2.53;0.40;;;13.70;99.90;;;;;;5133401;28;20277;-69
2021/11/01 13:39:32;;;;;;;2.80;0.30;;;13.80;99.90;;;;;;5133214;28;20225;-70
2021/11/01 13:42:01;;;;;;;0.73;0.30;;;13.80;99.90;;;;;;5133172;28;20204;-70
2021/11/01 13:44:28;;;;;;;0.93;0.30;;;13.80;99.90;;;;;;5133024;28;20234;-70
2021/11/01 13:46:59;;;;;;;1.53;0.43;;;13.80;99.90;;;;;;5111687;22;20239;-74
2021/11/01 13:49:30;;;;;;;0.77;0.30;;;13.80;99.90;;;;;;5072135;28;20207;-75
2021/11/01 13:52:09;;;;;;;1.67;0.23;;;13.80;99.90;;;;;;5071993;28;20203;-75
2021/11/01 13:54:40;;;;;;;0.90;0.30;;;13.80;99.90;;;;;;5071966;28;20266;-74
2021/11/01 13:57:16;;;;;;;2.37;0.30;;;14.00;99.90;;;;;;5072300;28;20247;-76
2021/11/01 13:59:50;;;;;;;4.60;0.67;;;14.00;99.90;;;;;;5072397;28;20314;-75
2021/11/01 14:13:32;;;;;;;3.13;0.40;;;13.90;99.90;;;;;;5075473;28;20256;-75
2021/11/01 14:16:18;;;;;;;0.70;0.33;;;13.80;99.90;;;;;;5075440;28;20210;-75
2021/11/01 14:18:55;;;;;;;1.90;1.10;;;13.80;99.90;;;;;;5075809;28;20574;-75
2021/11/01 14:27:06;;;;;;;4.27;0.80;;;13.70;99.90;;;;;;5068023;28;20261;-74
2021/11/01 14:32:52;;;;;;;1.10;0.37;;;13.40;99.90;;;;;;5007438;28;20208;-73
2021/11/01 14:35:48;;;;;;;1.73;0.50;;;13.30;99.90;;;;;;5053338;28;20238;-75
2021/11/01 15:00:41;;;;;;;3.47;0.30;;;12.90;99.90;;;;;;5054375;28;20227;-73
2021/11/01 15:08:58;;;;;;;1.23;0.40;;;12.80;99.90;;;;;;5054013;28;20583;-74
2021/11/01 15:12:15;;;;;;;2.03;0.50;;;12.80;99.90;;;;;;5054617;28;20228;-74
2021/11/01 15:14:52;;;;;;;0.80;0.30;;;12.80;99.90;;;;;;5053980;28;20322;-73
2021/11/01 15:20:25;;;;;;;0.77;0.20;;;12.70;99.90;;;;;;5052409;28;20224;-73
2021/11/01 15:23:03;;;;;;;3.63;0.73;;;12.60;99.90;;;;;;5054152;28;20664;-73
2021/11/01 16:18:05;;;;;;;2.30;0.60;;;11.70;99.90;;;;;;5053106;28;20291;-73
2021/11/01 16:20:32;;;;;;;2.50;0.50;;;11.70;99.90;;;;;;5052889;28;20219;-73
2021/11/01 16:25:42;;;;;;;1.80;0.73;;;11.60;99.90;;;;;;5048804;28;20529;-73
2021/11/01 16:28:09;;;;;;;0.73;0.40;;;11.60;99.90;;;;;;5052384;28;20704;-73
2021/11/01 16:30:37;;;;;;;2.67;0.80;;;11.70;99.90;;;;;;5052310;28;20239;-73
2021/11/01 16:33:07;;;;;;;2.97;0.77;;;11.80;99.90;;;;;;5052183;28;20280;-73
2021/11/01 16:35:38;;;;;;;2.63;1.03;;;11.80;99.90;;;;;;5052774;28;20238;-73
2021/11/01 16:38:09;;;;;;;1.67;0.70;;;11.70;99.90;;;;;;5052447;28;20868;-73
2021/11/01 16:40:40;;;;;;;0.97;0.43;;;11.70;99.90;;;;;;5052366;28;20243;-74
2021/11/01 16:43:14;;;;;;;4.07;1.23;;;11.80;99.90;;;;;;5052867;28;20303;-73
2021/11/01 16:45:41;;;;;;;4.03;1.63;;;11.80;99.90;;;;;;5052449;28;20207;-73
2021/11/01 16:48:08;;;;;;;4.37;1.57;;;11.90;99.90;;;;;;5052559;28;20234;-73
2021/11/01 16:50:36;;;;;;;3.40;1.03;;;12.00;99.90;;;;;;5052855;28;20232;-73
2021/11/01 16:53:03;;;;;;;1.30;0.67;;;12.10;99.90;;;;;;5052552;28;20210;-73
2021/11/01 16:55:34;;;;;;;4.87;0.90;;;12.10;99.90;;;;;;5051987;28;20238;-73
2021/11/01 16:58:12;;;;;;;4.73;1.00;;;12.10;99.90;;;;;;5052205;28;20212;-73
2021/11/01 17:00:46;;;;;;;7.63;3.27;;;12.00;99.90;;;;;;5052166;28;20234;-73
2021/11/01 17:06:02;;;;;;;3.80;1.30;;;12.00;99.90;;;;;;5049457;28;20215;-73
2021/11/01 17:22:36;;;;;;;0.97;0.57;;;11.50;99.90;;;;;;5052052;28;20207;-73
2021/11/01 17:25:08;;;;;;;1.37;0.70;;;11.30;99.90;;;;;;5051553;28;20215;-73
2021/11/01 17:27:57;;;;;;;2.23;1.00;;;11.20;99.90;;;;;;5052163;28;20254;-73
2021/11/01 17:36:13;;;;;;;3.27;1.00;;;11.00;99.90;;;;;;5054261;28;20317;-73
2021/11/01 17:39:06;;;;;;;0.97;0.87;;;10.90;99.90;;;;;;5055526;28;20215;-73
2021/11/01 18:37:57;;;;;;;3.90;1.30;;;10.30;99.90;;;;;;5054980;28;20275;-70
2021/11/01 18:40:38;;;;;;;4.80;1.37;;;10.30;99.90;;;;;;5054787;28;20220;-72
2021/11/01 18:46:11;;;;;;;7.60;1.60;;;10.00;99.90;;;;;;5020918;28;20223;-70
2021/11/01 18:51:30;;;;;;;4.67;1.57;;;10.10;99.90;;;;;;5054887;28;20290;-71
2021/11/01 18:54:04;;;;;;;4.00;2.00;;;10.00;99.90;;;;;;5054954;28;20212;-71
2021/11/01 18:56:37;;;;;;;5.33;2.03;;;9.90;99.90;;;;;;5054916;28;20232;-70
2021/11/01 18:59:06;;;;;;;6.20;1.87;;;9.80;99.90;;;;;;5054611;28;20307;-71
2021/11/01 19:01:35;;;;;;;3.17;1.67;;;9.80;99.90;;;;;;5054172;28;20595;-70
2021/11/01 19:04:05;;;;;;;4.60;1.83;;;9.80;99.90;;;;;;5053999;28;20211;-70
2021/11/01 19:06:42;;;;;;;4.17;1.80;;;9.80;99.90;;;;;;5056901;28;20207;-70
2021/11/01 19:09:21;;;;;;;5.33;2.37;;;9.70;99.90;;;;;;5064218;28;20219;-71
2021/11/01 20:04:56;;;;;;;2.93;1.30;;;9.00;99.90;;;;;;5063554;28;20288;-70
2021/11/01 20:13:06;;;;;;;3.00;1.20;;;9.10;99.90;;;;;;5064683;28;20280;-70
2021/11/01 21:25:21;;;;;;;1.60;0.90;;;8.30;99.90;;;;;;5054177;28;20207;-71
2021/11/01 21:27:48;;;;;;;2.43;0.87;;;8.30;99.90;;;;;;5060837;28;20214;-70
2021/11/01 21:30:16;;;;;;;2.53;1.10;;;8.30;99.90;;;;;;5067029;28;20268;-71
2021/11/01 21:32:43;;;;;;;1.87;0.70;;;8.40;99.90;;;;;;5055075;28;20200;-71
2021/11/01 21:35:13;;;;;;;2.00;0.90;;;8.30;99.90;;;;;;5059586;28;20591;-72
2021/11/01 21:37:40;;;;;;;3.07;1.10;;;8.20;99.90;;;;;;5054465;28;20240;-70
2021/11/01 21:40:10;;;;;;;1.63;0.60;;;8.20;99.90;;;;;;5056915;28;20322;-71
2021/11/01 21:42:39;;;;;;;3.27;0.73;;;8.20;99.90;;;;;;5057558;28;20265;-74
2021/11/01 21:45:07;;;;;;;4.57;0.90;;;8.30;99.90;;;;;;5052960;28;20214;-73
2021/11/01 21:47:35;;;;;;;2.57;0.70;;;8.20;99.90;;;;;;5062471;28;20207;-72
2021/11/01 21:50:05;;;;;;;1.50;0.60;;;8.20;99.90;;;;;;5057343;28;20310;-71
2021/11/01 21:52:33;;;;;;;1.83;0.67;;;8.30;99.90;;;;;;5070343;28;20226;-70
2021/11/01 21:55:00;;;;;;;0.80;0.50;;;8.30;99.90;;;;;;5055952;28;20219;-71
2021/11/01 21:57:32;;;;;;;1.43;0.60;;;8.40;99.90;;;;;;5051989;28;20208;-71
